sensor_id;sensor_type;location;lat;lon;timestamp;temperature;humidity
2931;DHT22;1475;51.454;7.150;2022-08-19T00:01:18;18.70;99.90
2931;DHT22;1475;51.454;7.150;2022-08-19T00:03:45;18.70;99.90
2931;DHT22;1475;51.454;7.150;2022-08-19T00:06:12;18.70;99.90
2931;DHT22;1475;51.454;7.150;2022-08-19T00:08:40;18.70;99.90
2931;DHT22;1475;51.454;7.150;2022-08-19T00:11:07;18.70;99.90
2931;DHT22;1475;51.454;7.150;2022-08-19T00:13:34;18.60;99.90
2931;DHT22;1475;51.454;7.150;2022-08-19T00:16:02;18.60;99.90
2931;DHT22;1475;51.454;7.150;2022-08-19T00:18:29;18.60;99.90
2931;DHT22;1475;51.454;7.150;2022-08-19T00:20:57;18.60;99.90
2931;DHT22;1475;51.454;7.150;2022-08-19T00:23:24;18.60;99.90
2931;DHT22;1475;51.454;7.150;2022-08-19T00:25:53;18.60;99.90
2931;DHT22;1475;51.454;7.150;2022-08-19T00:28:20;18.50;99.90
2931;DHT22;1475;51.454;7.150;2022-08-19T00:30:47;18.50;99.90
2931;DHT22;1475;51.454;7.150;2022-08-19T00:33:13;18.50;99.90
2931;DHT22;1475;51.454;7.150;2022-08-19T00:35:42;18.50;99.90
2931;DHT22;1475;51.454;7.150;2022-08-19T00:38:08;18.50;99.90
2931;DHT22;1475;51.454;7.150;2022-08-19T00:40:35;18.40;99.90
2931;DHT22;1475;51.454;7.150;2022-08-19T00:43:09;18.40;99.90
2931;DHT22;1475;51.454;7.150;2022-08-19T00:45:36;18.40;99.90
2931;DHT22;1475;51.454;7.150;2022-08-19T00:48:03;18.40;99.90
2931;DHT22;1475;51.454;7.150;2022-08-19T00:50:30;18.40;99.90
2931;DHT22;1475;51.454;7.150;2022-08-19T00:52:58;18.30;99.90
2931;DHT22;1475;51.454;7.150;2022-08-19T00:55:26;18.30;99.90
2931;DHT22;1475;51.454;7.150;2022-08-19T00:57:56;18.30;99.90
2931;DHT22;1475;51.454;7.150;2022-08-19T01:00:27;18.30;99.90
2931;DHT22;1475;51.454;7.150;2022-08-19T01:02:54;18.30;99.90
2931;DHT22;1475;51.454;7.150;2022-08-19T01:05:24;18.20;99.90
2931;DHT22;1475;51.454;7.150;2022-08-19T01:07:53;18.20;99.90
2931;DHT22;1475;51.454;7.150;2022-08-19T01:10:24;18.20;99.90
2931;DHT22;1475;51.454;7.150;2022-08-19T01:12:52;18.20;99.90
2931;DHT22;1475;51.454;7.150;2022-08-19T01:15:23;18.10;99.90
2931;DHT22;1475;51.454;7.150;2022-08-19T01:17:54;18.10;99.90
2931;DHT22;1475;51.454;7.150;2022-08-19T01:20:23;18.10;99.90
2931;DHT22;1475;51.454;7.150;2022-08-19T01:22:53;18.10;99.90
2931;DHT22;1475;51.454;7.150;2022-08-19T01:25:24;18.10;99.90
2931;DHT22;1475;51.454;7.150;2022-08-19T01:27:52;18.00;99.90
2931;DHT22;1475;51.454;7.150;2022-08-19T01:30:21;18.00;99.90
2931;DHT22;1475;51.454;7.150;2022-08-19T01:32:48;18.00;99.90
2931;DHT22;1475;51.454;7.150;2022-08-19T01:35:16;18.00;99.90
2931;DHT22;1475;51.454;7.150;2022-08-19T01:37:45;18.00;99.90
2931;DHT22;1475;51.454;7.150;2022-08-19T01:40:14;17.90;99.90
2931;DHT22;1475;51.454;7.150;2022-08-19T01:42:41;18.00;99.90
2931;DHT22;1475;51.454;7.150;2022-08-19T01:45:08;17.90;99.90
2931;DHT22;1475;51.454;7.150;2022-08-19T01:47:36;18.00;99.90
2931;DHT22;1475;51.454;7.150;2022-08-19T01:50:04;18.00;99.90
2931;DHT22;1475;51.454;7.150;2022-08-19T01:52:31;17.90;99.90
2931;DHT22;1475;51.454;7.150;2022-08-19T01:54:58;17.90;99.90
2931;DHT22;1475;51.454;7.150;2022-08-19T01:57:27;17.90;99.90
2931;DHT22;1475;51.454;7.150;2022-08-19T01:59:54;17.90;99.90
2931;DHT22;1475;51.454;7.150;2022-08-19T02:02:21;17.90;99.90
2931;DHT22;1475;51.454;7.150;2022-08-19T02:04:48;17.90;99.90
2931;DHT22;1475;51.454;7.150;2022-08-19T02:07:15;17.80;99.90
2931;DHT22;1475;51.454;7.150;2022-08-19T02:09:45;17.80;99.90
2931;DHT22;1475;51.454;7.150;2022-08-19T02:12:12;17.80;99.90
2931;DHT22;1475;51.454;7.150;2022-08-19T02:14:41;17.80;99.90
2931;DHT22;1475;51.454;7.150;2022-08-19T02:17:08;17.80;99.90
2931;DHT22;1475;51.454;7.150;2022-08-19T02:19:35;17.70;99.90
2931;DHT22;1475;51.454;7.150;2022-08-19T02:22:02;17.80;99.90
2931;DHT22;1475;51.454;7.150;2022-08-19T02:24:29;17.70;99.90
2931;DHT22;1475;51.454;7.150;2022-08-19T02:26:56;17.70;99.90
2931;DHT22;1475;51.454;7.150;2022-08-19T02:29:24;17.70;99.90
2931;DHT22;1475;51.454;7.150;2022-08-19T02:31:52;17.70;99.90
2931;DHT22;1475;51.454;7.150;2022-08-19T02:34:19;17.70;99.90
2931;DHT22;1475;51.454;7.150;2022-08-19T02:36:46;17.70;99.90
2931;DHT22;1475;51.454;7.150;2022-08-19T02:39:12;17.70;99.90
2931;DHT22;1475;51.454;7.150;2022-08-19T02:41:38;17.70;99.90
2931;DHT22;1475;51.454;7.150;2022-08-19T02:44:06;17.70;99.90
2931;DHT22;1475;51.454;7.150;2022-08-19T02:46:33;17.70;99.90
2931;DHT22;1475;51.454;7.150;2022-08-19T02:49:04;17.60;99.90
2931;DHT22;1475;51.454;7.150;2022-08-19T02:51:34;17.70;99.90
2931;DHT22;1475;51.454;7.150;2022-08-19T02:54:01;17.70;99.90
2931;DHT22;1475;51.454;7.150;2022-08-19T02:56:28;17.70;99.90
2931;DHT22;1475;51.454;7.150;2022-08-19T02:58:57;17.70;99.90
2931;DHT22;1475;51.454;7.150;2022-08-19T03:01:25;17.70;99.90
2931;DHT22;1475;51.454;7.150;2022-08-19T03:03:53;17.60;99.90
2931;DHT22;1475;51.454;7.150;2022-08-19T03:06:23;17.70;99.90
2931;DHT22;1475;51.454;7.150;2022-08-19T03:08:50;17.70;99.90
2931;DHT22;1475;51.454;7.150;2022-08-19T03:11:20;17.70;99.90
2931;DHT22;1475;51.454;7.150;2022-08-19T03:13:47;17.60;99.90
2931;DHT22;1475;51.454;7.150;2022-08-19T03:16:16;17.60;99.90
2931;DHT22;1475;51.454;7.150;2022-08-19T03:18:43;17.60;99.90
2931;DHT22;1475;51.454;7.150;2022-08-19T03:21:15;17.60;99.90
2931;DHT22;1475;51.454;7.150;2022-08-19T03:23:43;17.60;99.90
2931;DHT22;1475;51.454;7.150;2022-08-19T03:26:10;17.60;99.90
2931;DHT22;1475;51.454;7.150;2022-08-19T03:28:37;17.60;99.90
2931;DHT22;1475;51.454;7.150;2022-08-19T03:31:06;17.50;99.90
2931;DHT22;1475;51.454;7.150;2022-08-19T03:33:34;17.60;99.90
2931;DHT22;1475;51.454;7.150;2022-08-19T03:36:07;17.60;99.90
2931;DHT22;1475;51.454;7.150;2022-08-19T03:38:35;17.50;99.90
2931;DHT22;1475;51.454;7.150;2022-08-19T03:41:05;17.50;99.90
2931;DHT22;1475;51.454;7.150;2022-08-19T03:43:34;17.50;99.90
2931;DHT22;1475;51.454;7.150;2022-08-19T03:46:04;17.50;99.90
2931;DHT22;1475;51.454;7.150;2022-08-19T03:48:32;17.50;99.90
2931;DHT22;1475;51.454;7.150;2022-08-19T03:50:59;17.50;99.90
2931;DHT22;1475;51.454;7.150;2022-08-19T03:53:26;17.40;99.90
2931;DHT22;1475;51.454;7.150;2022-08-19T03:55:54;17.40;99.90
2931;DHT22;1475;51.454;7.150;2022-08-19T03:58:23;17.40;99.90
2931;DHT22;1475;51.454;7.150;2022-08-19T04:00:49;17.40;99.90
2931;DHT22;1475;51.454;7.150;2022-08-19T04:03:17;17.30;99.90
2931;DHT22;1475;51.454;7.150;2022-08-19T04:05:46;17.30;99.90
2931;DHT22;1475;51.454;7.150;2022-08-19T04:08:13;17.30;99.90
2931;DHT22;1475;51.454;7.150;2022-08-19T04:10:41;17.20;99.90
2931;DHT22;1475;51.454;7.150;2022-08-19T04:13:07;17.20;99.90
2931;DHT22;1475;51.454;7.150;2022-08-19T04:15:39;17.20;99.90
2931;DHT22;1475;51.454;7.150;2022-08-19T04:18:07;17.20;99.90
2931;DHT22;1475;51.454;7.150;2022-08-19T04:20:39;17.20;99.90
2931;DHT22;1475;51.454;7.150;2022-08-19T04:23:06;17.20;99.90
2931;DHT22;1475;51.454;7.150;2022-08-19T04:25:36;17.30;99.90
2931;DHT22;1475;51.454;7.150;2022-08-19T04:28:03;17.30;99.90
2931;DHT22;1475;51.454;7.150;2022-08-19T04:30:30;17.30;99.90
2931;DHT22;1475;51.454;7.150;2022-08-19T04:32:59;17.40;99.90
2931;DHT22;1475;51.454;7.150;2022-08-19T04:35:26;17.50;99.90
2931;DHT22;1475;51.454;7.150;2022-08-19T04:37:53;17.50;99.90
2931;DHT22;1475;51.454;7.150;2022-08-19T04:40:20;17.60;99.90
2931;DHT22;1475;51.454;7.150;2022-08-19T04:43:09;17.70;99.90
2931;DHT22;1475;51.454;7.150;2022-08-19T04:45:37;17.70;99.90
2931;DHT22;1475;51.454;7.150;2022-08-19T04:48:06;17.80;99.90
2931;DHT22;1475;51.454;7.150;2022-08-19T04:50:32;17.90;99.90
2931;DHT22;1475;51.454;7.150;2022-08-19T04:52:59;17.90;99.90
2931;DHT22;1475;51.454;7.150;2022-08-19T04:55:26;18.00;99.90
2931;DHT22;1475;51.454;7.150;2022-08-19T04:57:53;18.00;99.90
2931;DHT22;1475;51.454;7.150;2022-08-19T05:00:23;18.10;99.90
2931;DHT22;1475;51.454;7.150;2022-08-19T05:02:50;18.10;99.90
2931;DHT22;1475;51.454;7.150;2022-08-19T05:05:18;18.20;99.90
2931;DHT22;1475;51.454;7.150;2022-08-19T05:07:46;18.30;99.90
2931;DHT22;1475;51.454;7.150;2022-08-19T05:10:13;18.40;99.90
2931;DHT22;1475;51.454;7.150;2022-08-19T05:12:39;18.40;99.90
2931;DHT22;1475;51.454;7.150;2022-08-19T05:15:07;18.40;99.90
2931;DHT22;1475;51.454;7.150;2022-08-19T05:17:35;18.50;99.90
2931;DHT22;1475;51.454;7.150;2022-08-19T05:20:03;18.50;99.90
2931;DHT22;1475;51.454;7.150;2022-08-19T05:22:48;18.50;99.90
2931;DHT22;1475;51.454;7.150;2022-08-19T05:25:18;18.60;99.90
2931;DHT22;1475;51.454;7.150;2022-08-19T05:27:46;18.60;99.90
2931;DHT22;1475;51.454;7.150;2022-08-19T05:30:13;18.70;99.90
2931;DHT22;1475;51.454;7.150;2022-08-19T05:32:42;18.80;99.90
2931;DHT22;1475;51.454;7.150;2022-08-19T05:35:09;18.90;99.90
2931;DHT22;1475;51.454;7.150;2022-08-19T05:37:37;19.10;99.90
2931;DHT22;1475;51.454;7.150;2022-08-19T05:40:08;19.20;99.90
2931;DHT22;1475;51.454;7.150;2022-08-19T05:42:35;19.40;99.90
2931;DHT22;1475;51.454;7.150;2022-08-19T05:45:02;19.50;99.90
2931;DHT22;1475;51.454;7.150;2022-08-19T05:47:36;19.70;99.90
2931;DHT22;1475;51.454;7.150;2022-08-19T05:50:04;19.90;99.90
2931;DHT22;1475;51.454;7.150;2022-08-19T05:52:31;20.00;99.90
2931;DHT22;1475;51.454;7.150;2022-08-19T05:54:58;20.00;99.90
2931;DHT22;1475;51.454;7.150;2022-08-19T05:57:26;20.10;99.90
2931;DHT22;1475;51.454;7.150;2022-08-19T05:59:54;20.20;99.90
2931;DHT22;1475;51.454;7.150;2022-08-19T06:02:22;20.40;99.90
2931;DHT22;1475;51.454;7.150;2022-08-19T06:04:48;20.50;99.90
2931;DHT22;1475;51.454;7.150;2022-08-19T06:07:15;20.50;99.90
2931;DHT22;1475;51.454;7.150;2022-08-19T06:09:42;20.70;99.90
2931;DHT22;1475;51.454;7.150;2022-08-19T06:12:09;20.60;99.90
2931;DHT22;1475;51.454;7.150;2022-08-19T06:14:37;20.50;99.90
2931;DHT22;1475;51.454;7.150;2022-08-19T06:17:05;20.40;99.90
2931;DHT22;1475;51.454;7.150;2022-08-19T06:19:32;20.40;99.90
2931;DHT22;1475;51.454;7.150;2022-08-19T06:22:00;20.40;99.90
2931;DHT22;1475;51.454;7.150;2022-08-19T06:24:28;20.40;99.90
2931;DHT22;1475;51.454;7.150;2022-08-19T06:26:56;20.30;99.90
2931;DHT22;1475;51.454;7.150;2022-08-19T06:29:25;20.30;99.90
2931;DHT22;1475;51.454;7.150;2022-08-19T06:31:55;20.40;99.90
2931;DHT22;1475;51.454;7.150;2022-08-19T06:34:24;20.40;99.90
2931;DHT22;1475;51.454;7.150;2022-08-19T06:36:54;20.40;99.90
2931;DHT22;1475;51.454;7.150;2022-08-19T06:39:26;20.40;99.90
2931;DHT22;1475;51.454;7.150;2022-08-19T06:41:56;20.40;99.90
2931;DHT22;1475;51.454;7.150;2022-08-19T06:44:25;20.40;99.90
2931;DHT22;1475;51.454;7.150;2022-08-19T06:46:55;20.40;99.90
2931;DHT22;1475;51.454;7.150;2022-08-19T06:49:22;20.40;99.90
2931;DHT22;1475;51.454;7.150;2022-08-19T06:51:56;20.30;99.90
2931;DHT22;1475;51.454;7.150;2022-08-19T06:54:24;20.30;99.90
2931;DHT22;1475;51.454;7.150;2022-08-19T06:56:52;20.20;99.90
2931;DHT22;1475;51.454;7.150;2022-08-19T06:59:20;20.20;99.90
2931;DHT22;1475;51.454;7.150;2022-08-19T07:01:49;20.20;99.90
2931;DHT22;1475;51.454;7.150;2022-08-19T07:04:20;20.30;99.90
2931;DHT22;1475;51.454;7.150;2022-08-19T07:06:48;20.30;99.90
2931;DHT22;1475;51.454;7.150;2022-08-19T07:09:17;20.30;99.90
2931;DHT22;1475;51.454;7.150;2022-08-19T07:11:45;20.40;99.90
2931;DHT22;1475;51.454;7.150;2022-08-19T07:14:12;20.40;99.90
2931;DHT22;1475;51.454;7.150;2022-08-19T07:16:39;20.40;99.90
2931;DHT22;1475;51.454;7.150;2022-08-19T07:19:06;20.50;99.90
2931;DHT22;1475;51.454;7.150;2022-08-19T07:21:35;20.50;99.90
2931;DHT22;1475;51.454;7.150;2022-08-19T07:24:03;20.70;99.90
2931;DHT22;1475;51.454;7.150;2022-08-19T07:26:32;20.70;99.90
2931;DHT22;1475;51.454;7.150;2022-08-19T07:28:59;20.80;99.90
2931;DHT22;1475;51.454;7.150;2022-08-19T07:31:28;20.80;99.90
2931;DHT22;1475;51.454;7.150;2022-08-19T07:33:56;21.00;99.90
2931;DHT22;1475;51.454;7.150;2022-08-19T07:36:26;21.10;99.90
2931;DHT22;1475;51.454;7.150;2022-08-19T07:38:58;21.20;99.90
2931;DHT22;1475;51.454;7.150;2022-08-19T07:41:28;21.30;99.90
2931;DHT22;1475;51.454;7.150;2022-08-19T07:43:57;21.40;99.90
2931;DHT22;1475;51.454;7.150;2022-08-19T07:46:23;21.50;99.90
2931;DHT22;1475;51.454;7.150;2022-08-19T07:48:52;21.60;99.90
2931;DHT22;1475;51.454;7.150;2022-08-19T07:51:20;21.70;99.90
2931;DHT22;1475;51.454;7.150;2022-08-19T07:53:48;21.80;99.90
2931;DHT22;1475;51.454;7.150;2022-08-19T07:56:17;21.90;99.90
2931;DHT22;1475;51.454;7.150;2022-08-19T07:58:47;22.00;99.90
2931;DHT22;1475;51.454;7.150;2022-08-19T08:01:16;22.10;99.90
2931;DHT22;1475;51.454;7.150;2022-08-19T08:03:44;22.20;99.90
2931;DHT22;1475;51.454;7.150;2022-08-19T08:06:29;22.30;99.90
2931;DHT22;1475;51.454;7.150;2022-08-19T08:09:15;22.30;99.90
2931;DHT22;1475;51.454;7.150;2022-08-19T08:11:50;22.40;99.90
2931;DHT22;1475;51.454;7.150;2022-08-19T08:14:19;22.40;99.90
2931;DHT22;1475;51.454;7.150;2022-08-19T08:16:50;22.50;99.90
2931;DHT22;1475;51.454;7.150;2022-08-19T08:19:18;22.60;99.90
2931;DHT22;1475;51.454;7.150;2022-08-19T08:21:46;22.80;99.90
2931;DHT22;1475;51.454;7.150;2022-08-19T08:24:13;22.90;99.90
2931;DHT22;1475;51.454;7.150;2022-08-19T08:26:40;23.00;99.90
2931;DHT22;1475;51.454;7.150;2022-08-19T08:29:09;23.20;99.90
2931;DHT22;1475;51.454;7.150;2022-08-19T08:31:38;23.10;99.90
2931;DHT22;1475;51.454;7.150;2022-08-19T08:34:05;23.20;99.90
2931;DHT22;1475;51.454;7.150;2022-08-19T08:36:32;23.30;99.90
2931;DHT22;1475;51.454;7.150;2022-08-19T08:39:03;23.40;99.90
2931;DHT22;1475;51.454;7.150;2022-08-19T08:41:37;23.60;99.90
2931;DHT22;1475;51.454;7.150;2022-08-19T08:44:14;23.70;99.90
2931;DHT22;1475;51.454;7.150;2022-08-19T08:46:46;23.80;99.90
2931;DHT22;1475;51.454;7.150;2022-08-19T08:49:24;24.00;99.90
2931;DHT22;1475;51.454;7.150;2022-08-19T08:51:58;24.00;99.90
2931;DHT22;1475;51.454;7.150;2022-08-19T08:54:32;24.10;99.90
2931;DHT22;1475;51.454;7.150;2022-08-19T08:56:59;24.30;99.90
2931;DHT22;1475;51.454;7.150;2022-08-19T08:59:30;24.30;99.90
2931;DHT22;1475;51.454;7.150;2022-08-19T09:01:59;24.50;99.90
2931;DHT22;1475;51.454;7.150;2022-08-19T09:04:26;24.50;99.90
2931;DHT22;1475;51.454;7.150;2022-08-19T09:07:01;24.60;99.90
2931;DHT22;1475;51.454;7.150;2022-08-19T09:09:34;24.80;99.90
2931;DHT22;1475;51.454;7.150;2022-08-19T09:12:06;25.00;99.90
2931;DHT22;1475;51.454;7.150;2022-08-19T09:14:43;25.10;99.90
2931;DHT22;1475;51.454;7.150;2022-08-19T09:17:13;25.20;99.90
2931;DHT22;1475;51.454;7.150;2022-08-19T09:19:49;25.10;99.90
2931;DHT22;1475;51.454;7.150;2022-08-19T09:22:21;25.20;99.90
2931;DHT22;1475;51.454;7.150;2022-08-19T09:24:50;25.40;99.90
2931;DHT22;1475;51.454;7.150;2022-08-19T09:27:18;25.60;99.90
2931;DHT22;1475;51.454;7.150;2022-08-19T09:29:55;25.70;99.90
2931;DHT22;1475;51.454;7.150;2022-08-19T09:32:22;26.00;99.90
2931;DHT22;1475;51.454;7.150;2022-08-19T09:34:56;26.30;99.90
2931;DHT22;1475;51.454;7.150;2022-08-19T09:37:24;26.40;99.90
2931;DHT22;1475;51.454;7.150;2022-08-19T09:39:51;26.20;99.90
2931;DHT22;1475;51.454;7.150;2022-08-19T09:42:18;26.20;99.90
2931;DHT22;1475;51.454;7.150;2022-08-19T09:44:45;25.90;99.90
2931;DHT22;1475;51.454;7.150;2022-08-19T09:47:14;25.90;99.90
2931;DHT22;1475;51.454;7.150;2022-08-19T09:49:41;25.80;99.90
2931;DHT22;1475;51.454;7.150;2022-08-19T09:52:10;25.70;99.90
2931;DHT22;1475;51.454;7.150;2022-08-19T09:54:41;25.60;99.90
2931;DHT22;1475;51.454;7.150;2022-08-19T09:57:08;25.50;99.90
2931;DHT22;1475;51.454;7.150;2022-08-19T09:59:35;25.70;99.90
2931;DHT22;1475;51.454;7.150;2022-08-19T10:02:05;25.80;99.90
2931;DHT22;1475;51.454;7.150;2022-08-19T10:04:34;25.80;99.90
2931;DHT22;1475;51.454;7.150;2022-08-19T10:07:30;26.10;99.90
2931;DHT22;1475;51.454;7.150;2022-08-19T10:09:57;26.20;99.90
2931;DHT22;1475;51.454;7.150;2022-08-19T10:12:23;26.20;99.90
2931;DHT22;1475;51.454;7.150;2022-08-19T10:14:50;26.10;99.90
2931;DHT22;1475;51.454;7.150;2022-08-19T10:17:18;26.10;99.90
2931;DHT22;1475;51.454;7.150;2022-08-19T10:19:47;26.30;99.90
2931;DHT22;1475;51.454;7.150;2022-08-19T10:22:14;26.40;99.90
2931;DHT22;1475;51.454;7.150;2022-08-19T10:24:41;26.50;99.90
2931;DHT22;1475;51.454;7.150;2022-08-19T10:27:08;26.50;99.90
2931;DHT22;1475;51.454;7.150;2022-08-19T10:29:35;26.70;99.90
2931;DHT22;1475;51.454;7.150;2022-08-19T10:32:03;26.90;99.90
2931;DHT22;1475;51.454;7.150;2022-08-19T10:34:31;27.10;99.90
2931;DHT22;1475;51.454;7.150;2022-08-19T10:37:00;27.20;99.90
2931;DHT22;1475;51.454;7.150;2022-08-19T10:39:27;27.20;99.90
2931;DHT22;1475;51.454;7.150;2022-08-19T10:41:55;27.00;99.90
2931;DHT22;1475;51.454;7.150;2022-08-19T10:44:23;27.00;99.90
2931;DHT22;1475;51.454;7.150;2022-08-19T10:46:55;27.20;99.90
2931;DHT22;1475;51.454;7.150;2022-08-19T10:49:22;27.40;99.90
2931;DHT22;1475;51.454;7.150;2022-08-19T10:51:49;27.70;99.90
2931;DHT22;1475;51.454;7.150;2022-08-19T10:54:35;27.80;99.90
2931;DHT22;1475;51.454;7.150;2022-08-19T10:57:18;27.90;99.90
2931;DHT22;1475;51.454;7.150;2022-08-19T10:59:45;28.20;99.90
2931;DHT22;1475;51.454;7.150;2022-08-19T11:02:13;28.20;99.90
2931;DHT22;1475;51.454;7.150;2022-08-19T11:04:42;28.10;99.90
2931;DHT22;1475;51.454;7.150;2022-08-19T11:07:09;28.20;99.90
2931;DHT22;1475;51.454;7.150;2022-08-19T11:09:40;28.00;99.90
2931;DHT22;1475;51.454;7.150;2022-08-19T11:12:09;27.70;99.90
2931;DHT22;1475;51.454;7.150;2022-08-19T11:14:36;27.50;99.90
2931;DHT22;1475;51.454;7.150;2022-08-19T11:17:04;27.40;99.90
2931;DHT22;1475;51.454;7.150;2022-08-19T11:19:32;27.50;99.90
2931;DHT22;1475;51.454;7.150;2022-08-19T11:21:59;27.30;99.90
2931;DHT22;1475;51.454;7.150;2022-08-19T11:24:28;27.30;99.90
2931;DHT22;1475;51.454;7.150;2022-08-19T11:27:01;27.50;99.90
2931;DHT22;1475;51.454;7.150;2022-08-19T11:29:30;27.90;99.90
2931;DHT22;1475;51.454;7.150;2022-08-19T11:31:58;28.20;99.90
2931;DHT22;1475;51.454;7.150;2022-08-19T11:34:27;28.30;99.90
2931;DHT22;1475;51.454;7.150;2022-08-19T11:36:55;28.50;99.90
2931;DHT22;1475;51.454;7.150;2022-08-19T11:39:25;29.20;99.90
2931;DHT22;1475;51.454;7.150;2022-08-19T11:41:54;30.00;99.90
2931;DHT22;1475;51.454;7.150;2022-08-19T11:44:22;31.00;99.90
2931;DHT22;1475;51.454;7.150;2022-08-19T11:46:49;31.60;99.90
2931;DHT22;1475;51.454;7.150;2022-08-19T11:49:18;32.20;99.90
2931;DHT22;1475;51.454;7.150;2022-08-19T11:51:47;33.00;98.50
2931;DHT22;1475;51.454;7.150;2022-08-19T11:54:16;33.60;95.70
2931;DHT22;1475;51.454;7.150;2022-08-19T11:56:43;33.60;93.30
2931;DHT22;1475;51.454;7.150;2022-08-19T11:59:11;33.80;92.10
2931;DHT22;1475;51.454;7.150;2022-08-19T12:01:39;34.00;86.00
2931;DHT22;1475;51.454;7.150;2022-08-19T12:04:08;34.10;82.10
2931;DHT22;1475;51.454;7.150;2022-08-19T12:06:39;34.20;81.60
2931;DHT22;1475;51.454;7.150;2022-08-19T12:09:09;34.30;84.20
2931;DHT22;1475;51.454;7.150;2022-08-19T12:11:36;33.80;87.40
2931;DHT22;1475;51.454;7.150;2022-08-19T12:14:04;33.40;88.20
2931;DHT22;1475;51.454;7.150;2022-08-19T12:16:31;33.50;89.30
2931;DHT22;1475;51.454;7.150;2022-08-19T12:19:06;33.60;83.60
2931;DHT22;1475;51.454;7.150;2022-08-19T12:21:36;33.50;83.30
2931;DHT22;1475;51.454;7.150;2022-08-19T12:24:06;33.50;80.50
2931;DHT22;1475;51.454;7.150;2022-08-19T12:26:34;33.70;78.80
2931;DHT22;1475;51.454;7.150;2022-08-19T12:29:02;33.90;76.10
2931;DHT22;1475;51.454;7.150;2022-08-19T12:31:30;34.10;74.70
2931;DHT22;1475;51.454;7.150;2022-08-19T12:33:58;34.60;72.00
2931;DHT22;1475;51.454;7.150;2022-08-19T12:36:29;34.10;74.30
2931;DHT22;1475;51.454;7.150;2022-08-19T12:38:57;34.20;73.80
2931;DHT22;1475;51.454;7.150;2022-08-19T12:41:25;33.40;76.10
2931;DHT22;1475;51.454;7.150;2022-08-19T12:43:52;33.30;79.10
2931;DHT22;1475;51.454;7.150;2022-08-19T12:46:20;34.10;77.60
2931;DHT22;1475;51.454;7.150;2022-08-19T12:48:46;35.00;71.60
2931;DHT22;1475;51.454;7.150;2022-08-19T12:51:15;35.80;66.90
2931;DHT22;1475;51.454;7.150;2022-08-19T12:53:46;36.40;60.50
2931;DHT22;1475;51.454;7.150;2022-08-19T12:56:15;37.00;57.70
2931;DHT22;1475;51.454;7.150;2022-08-19T12:58:42;37.70;54.50
2931;DHT22;1475;51.454;7.150;2022-08-19T13:01:11;38.40;51.30
2931;DHT22;1475;51.454;7.150;2022-08-19T13:03:38;38.70;47.60
2931;DHT22;1475;51.454;7.150;2022-08-19T13:06:06;39.20;43.40
2931;DHT22;1475;51.454;7.150;2022-08-19T13:08:33;39.60;40.50
2931;DHT22;1475;51.454;7.150;2022-08-19T13:11:09;39.40;39.10
2931;DHT22;1475;51.454;7.150;2022-08-19T13:13:37;39.00;37.60
2931;DHT22;1475;51.454;7.150;2022-08-19T13:16:07;37.90;39.00
2931;DHT22;1475;51.454;7.150;2022-08-19T13:18:34;36.70;43.90
2931;DHT22;1475;51.454;7.150;2022-08-19T13:21:02;37.10;43.40
2931;DHT22;1475;51.454;7.150;2022-08-19T13:23:30;37.50;38.20
2931;DHT22;1475;51.454;7.150;2022-08-19T13:25:58;38.00;37.20
2931;DHT22;1475;51.454;7.150;2022-08-19T13:28:26;38.80;38.50
2931;DHT22;1475;51.454;7.150;2022-08-19T13:31:15;39.40;35.80
2931;DHT22;1475;51.454;7.150;2022-08-19T13:34:00;39.30;33.70
2931;DHT22;1475;51.454;7.150;2022-08-19T13:36:27;39.20;32.30
2931;DHT22;1475;51.454;7.150;2022-08-19T13:38:54;39.30;30.50
2931;DHT22;1475;51.454;7.150;2022-08-19T13:41:22;39.00;29.50
2931;DHT22;1475;51.454;7.150;2022-08-19T13:43:50;39.00;28.20
2931;DHT22;1475;51.454;7.150;2022-08-19T13:46:17;39.00;28.50
2931;DHT22;1475;51.454;7.150;2022-08-19T13:48:46;38.60;27.80
2931;DHT22;1475;51.454;7.150;2022-08-19T13:51:13;38.40;29.00
2931;DHT22;1475;51.454;7.150;2022-08-19T13:53:42;38.60;29.20
2931;DHT22;1475;51.454;7.150;2022-08-19T13:56:11;38.80;27.80
2931;DHT22;1475;51.454;7.150;2022-08-19T13:58:38;37.70;27.50
2931;DHT22;1475;51.454;7.150;2022-08-19T14:01:07;37.60;28.80
2931;DHT22;1475;51.454;7.150;2022-08-19T14:03:35;38.30;29.00
2931;DHT22;1475;51.454;7.150;2022-08-19T14:06:02;38.80;27.40
2931;DHT22;1475;51.454;7.150;2022-08-19T14:08:29;39.30;27.10
2931;DHT22;1475;51.454;7.150;2022-08-19T14:10:58;39.40;26.00
2931;DHT22;1475;51.454;7.150;2022-08-19T14:13:24;39.40;24.40
2931;DHT22;1475;51.454;7.150;2022-08-19T14:15:51;39.10;24.40
2931;DHT22;1475;51.454;7.150;2022-08-19T14:18:20;39.00;24.60
2931;DHT22;1475;51.454;7.150;2022-08-19T14:20:47;38.30;24.50
2931;DHT22;1475;51.454;7.150;2022-08-19T14:23:14;38.10;25.60
2931;DHT22;1475;51.454;7.150;2022-08-19T14:25:41;38.70;25.90
2931;DHT22;1475;51.454;7.150;2022-08-19T14:28:08;38.70;24.60
2931;DHT22;1475;51.454;7.150;2022-08-19T14:30:37;39.10;25.00
2931;DHT22;1475;51.454;7.150;2022-08-19T14:33:05;40.20;23.20
2931;DHT22;1475;51.454;7.150;2022-08-19T14:35:34;40.70;21.40
2931;DHT22;1475;51.454;7.150;2022-08-19T14:38:02;40.70;20.80
2931;DHT22;1475;51.454;7.150;2022-08-19T14:40:31;40.60;20.00
2931;DHT22;1475;51.454;7.150;2022-08-19T14:43:01;40.20;19.70
2931;DHT22;1475;51.454;7.150;2022-08-19T14:45:30;39.70;21.10
2931;DHT22;1475;51.454;7.150;2022-08-19T14:47:58;40.00;21.90
2931;DHT22;1475;51.454;7.150;2022-08-19T14:50:26;40.20;20.30
2931;DHT22;1475;51.454;7.150;2022-08-19T14:53:00;40.60;19.70
2931;DHT22;1475;51.454;7.150;2022-08-19T14:55:28;40.60;19.10
2931;DHT22;1475;51.454;7.150;2022-08-19T14:57:56;40.20;18.40
2931;DHT22;1475;51.454;7.150;2022-08-19T15:00:23;40.30;19.10
2931;DHT22;1475;51.454;7.150;2022-08-19T15:02:50;40.70;18.40
2931;DHT22;1475;51.454;7.150;2022-08-19T15:05:17;40.50;18.20
2931;DHT22;1475;51.454;7.150;2022-08-19T15:07:44;40.80;18.00
2931;DHT22;1475;51.454;7.150;2022-08-19T15:10:14;40.90;18.10
2931;DHT22;1475;51.454;7.150;2022-08-19T15:12:41;40.60;16.30
2931;DHT22;1475;51.454;7.150;2022-08-19T15:15:11;40.60;16.40
2931;DHT22;1475;51.454;7.150;2022-08-19T15:17:39;40.60;15.70
2931;DHT22;1475;51.454;7.150;2022-08-19T15:20:07;40.70;15.60
2931;DHT22;1475;51.454;7.150;2022-08-19T15:22:34;40.20;15.20
2931;DHT22;1475;51.454;7.150;2022-08-19T15:25:01;39.00;15.90
2931;DHT22;1475;51.454;7.150;2022-08-19T15:27:30;37.30;17.00
2931;DHT22;1475;51.454;7.150;2022-08-19T15:29:57;35.70;20.00
2931;DHT22;1475;51.454;7.150;2022-08-19T15:32:24;34.70;22.80
2931;DHT22;1475;51.454;7.150;2022-08-19T15:34:52;34.10;25.40
2931;DHT22;1475;51.454;7.150;2022-08-19T15:37:19;34.10;27.10
2931;DHT22;1475;51.454;7.150;2022-08-19T15:39:48;33.50;30.70
2931;DHT22;1475;51.454;7.150;2022-08-19T15:42:15;32.90;36.50
2931;DHT22;1475;51.454;7.150;2022-08-19T15:44:45;32.40;41.50
2931;DHT22;1475;51.454;7.150;2022-08-19T15:47:12;31.90;47.20
2931;DHT22;1475;51.454;7.150;2022-08-19T15:49:39;31.50;52.80
2931;DHT22;1475;51.454;7.150;2022-08-19T15:52:06;31.20;54.80
2931;DHT22;1475;51.454;7.150;2022-08-19T15:54:33;31.10;56.60
2931;DHT22;1475;51.454;7.150;2022-08-19T15:57:00;30.90;58.40
2931;DHT22;1475;51.454;7.150;2022-08-19T15:59:46;30.70;60.80
2931;DHT22;1475;51.454;7.150;2022-08-19T16:02:32;30.80;63.20
2931;DHT22;1475;51.454;7.150;2022-08-19T16:05:20;31.60;59.30
2931;DHT22;1475;51.454;7.150;2022-08-19T16:08:05;31.70;59.00
2931;DHT22;1475;51.454;7.150;2022-08-19T16:10:33;31.40;59.10
2931;DHT22;1475;51.454;7.150;2022-08-19T16:13:00;31.10;58.60